Myrtle Beach, SC

12:35 AM EST on December 20, 2014 (GMT -0500)
Green Lake | Change Station
CLOSE
Current Station
Personal Weather Station
Location: Myrtle Beach, SC
Elevation: 39 ft
Nearby Weather Stations

Elev 39 ft 33.78 °N, 78.78 °W | Updated 8 seconds ago

Partly Cloudy
Partly Cloudy
45.7 °F
Feels Like 46 °F
N
0.0
Wind Variable Wind from WNW
Gusts 1.0 mph

Today
High -- | Low -- °F
--% Chance of Precip.
Yesterday
High -- | Low -- °F
Precip. -- in
7:15 AM 5:10 PM
Waning Crescent, 4% visible
Pressure 30.19 in
Visibility 10.0 miles
Clouds Clear
Windchill 46 °F
Dew Point 42 °F
Humidity 87%
Rainfall 0.00 in
Snow Depth Not available.
UV 0.0 out of 12
Pollen 3.00 out of 12
Air Quality Not available.
Flu Activity Not available.
METAR KCRE 200453Z AUTO 03004KT 10SM CLR 07/04 A3019 RMK AO1 SLP224 T00670039 401440017

More Conditions Fewer Conditions

Pressure 30.19 in
Visibility 10.0 miles
Clouds Clear
Windchill 46 °F
Dew Point 42 °F
Humidity 87%
Rainfall 0.00 in
Snow Depth Not available.
UV 0.0 out of 12
Pollen 3.00 out of 12
Air Quality Not available.
Flu Activity Not available.
METAR KCRE 200453Z AUTO 03004KT 10SM CLR 07/04 A3019 RMK AO1 SLP224 T00670039 401440017

More Conditions Fewer Conditions

10-Day Weather Forecast

Almanac

Astronomy

Dec. 20, 2014 Rise Set
Actual Time
Civil Twilight
Nautical Twilight
Astronomical Twilight
Moon
Length of Visible Light
Length of Day
Tomorrow will be .
, % of the Moon is Illuminated

Today's Extremes

State Highs State Lows

Community

WunderPhotos

Upload Photos

1,779,141 photos uploaded!

WunderBlogs® & News

Nearby

Air Quality

  Air Quality AQ Index Pollutant
Not available.

Snow Depth

Station Depth Elevation

Earthquake Activity

City Distance Mag. Time & Date
Minimum magnitude displayed is 2.5.

Coastal Water Temperatures

Place Temperature

Nearby Weather Stations